createdAt,value
2018-03-24T00:01:13.203Z,8.81
2018-03-24T00:07:03.970Z,9.09
2018-03-24T00:12:54.730Z,10.33
2018-03-24T00:18:45.468Z,7.58
2018-03-24T00:24:36.205Z,8.58
2018-03-24T00:30:26.951Z,8.23
2018-03-24T00:36:17.752Z,6.89
2018-03-24T00:42:08.453Z,6.67
2018-03-24T00:47:59.247Z,7.5
2018-03-24T00:53:49.979Z,6.18
2018-03-24T00:59:40.761Z,5.85
2018-03-24T01:05:31.480Z,11.56
2018-03-24T01:11:22.270Z,6.39
2018-03-24T01:17:13.013Z,7.89
2018-03-24T01:23:03.741Z,6.45
2018-03-24T01:28:54.568Z,6.07
2018-03-24T01:34:45.283Z,5.82
2018-03-24T01:40:36.014Z,9.12
2018-03-24T01:46:26.750Z,7.23
2018-03-24T01:52:17.528Z,12.7
2018-03-24T01:58:08.273Z,6.85
2018-03-24T02:03:59.025Z,7.67
2018-03-24T02:09:49.807Z,7.09
2018-03-24T02:15:40.524Z,7.64
2018-03-24T02:21:31.289Z,7.28
2018-03-24T02:27:22.042Z,8.83
2018-03-24T02:33:12.807Z,4.56
2018-03-24T02:39:03.538Z,6.75
2018-03-24T02:44:54.278Z,5.66
2018-03-24T02:50:45.029Z,7.71
2018-03-24T02:56:35.864Z,10.6
2018-03-24T03:02:26.587Z,8.57
2018-03-24T03:08:17.281Z,4.67
2018-03-24T03:14:08.043Z,8.34
2018-03-24T03:19:58.797Z,2.71
2018-03-24T03:25:49.563Z,4.11
2018-03-24T03:31:40.305Z,12.52
2018-03-24T03:37:31.003Z,6.37
2018-03-24T03:43:21.755Z,5.03
2018-03-24T03:49:12.500Z,3.94
2018-03-24T03:55:03.248Z,3.5
2018-03-24T04:00:53.997Z,4.07
2018-03-24T04:06:44.745Z,10.61
2018-03-24T04:12:35.526Z,3.26
2018-03-24T04:18:26.229Z,3.17
2018-03-24T04:24:16.984Z,2.92
2018-03-24T04:30:07.715Z,2.54
2018-03-24T04:35:58.435Z,3.42
2018-03-24T04:41:49.222Z,2.79
2018-03-24T04:47:39.988Z,3.33
2018-03-24T04:53:30.737Z,4.16
2018-03-24T04:59:21.474Z,6.35
2018-03-24T05:05:12.177Z,8.38
2018-03-24T05:11:02.918Z,6.69
2018-03-24T05:16:53.652Z,4.79
2018-03-24T05:22:44.393Z,5.39
2018-03-24T05:28:35.175Z,12.18
2018-03-24T05:34:25.853Z,19.51
2018-03-24T05:40:16.620Z,15.69
2018-03-24T05:46:07.353Z,12.25
2018-03-24T05:51:58.126Z,14.31
2018-03-24T05:57:48.843Z,16.34
2018-03-24T06:03:39.607Z,14.4
2018-03-24T06:09:30.346Z,13.95
2018-03-24T06:15:21.059Z,14.99
2018-03-24T06:21:11.891Z,20.84
2018-03-24T06:27:02.544Z,17.97
2018-03-24T06:32:53.387Z,17.89
2018-03-24T06:38:44.070Z,22.91
2018-03-24T06:44:34.794Z,18.56
2018-03-24T06:50:25.595Z,30.92
2018-03-24T06:56:16.322Z,28.94
2018-03-24T07:02:07.067Z,23.13
2018-03-24T07:07:57.818Z,26.46
2018-03-24T07:13:48.562Z,28.43
2018-03-24T07:19:39.373Z,23.08
2018-03-24T07:25:30.053Z,20.6
2018-03-24T07:31:20.856Z,20.7
2018-03-24T07:37:11.580Z,22.84
2018-03-24T07:43:02.353Z,24.38
2018-03-24T07:48:53.101Z,22.11
2018-03-24T07:54:43.883Z,23.38
2018-03-24T08:00:34.650Z,21.73
2018-03-24T08:06:25.423Z,26.61
2018-03-24T08:12:16.213Z,29.76
2018-03-24T08:18:06.967Z,24.32
2018-03-24T08:23:57.773Z,25.99
2018-03-24T08:29:48.640Z,22.31
2018-03-24T08:35:39.395Z,21.09
2018-03-24T08:41:30.129Z,15.74
2018-03-24T08:47:20.985Z,17.3
2018-03-24T08:53:11.734Z,20.19
2018-03-24T08:59:02.549Z,21.46
2018-03-24T09:04:53.348Z,20.66
2018-03-24T09:10:44.183Z,23.12
2018-03-24T09:16:34.997Z,22.3
2018-03-24T09:22:25.859Z,21.81
2018-03-24T09:28:16.715Z,27.17
2018-03-24T09:34:07.519Z,26.68
2018-03-24T09:39:58.334Z,27.99
2018-03-24T09:45:49.218Z,45.66
2018-03-24T09:51:40.078Z,21.46
2018-03-24T09:57:30.902Z,12.4
2018-03-24T10:03:21.740Z,10.72
2018-03-24T10:09:12.596Z,6.45
2018-03-24T10:15:03.494Z,6.1
2018-03-24T10:20:54.323Z,5.25
2018-03-24T10:26:45.215Z,10.76
2018-03-24T10:32:36.061Z,4.37
2018-03-24T10:38:26.932Z,7.47
2018-03-24T10:44:17.824Z,26.34
2018-03-24T10:50:08.740Z,25.75
2018-03-24T10:55:59.633Z,21.77
2018-03-24T11:01:50.478Z,4.31
2018-03-24T11:07:41.375Z,4.64
2018-03-24T11:13:32.310Z,4.49
2018-03-24T11:19:23.181Z,5.02
2018-03-24T11:25:14.023Z,5.96
2018-03-24T11:31:04.915Z,5.56
2018-03-24T11:36:55.728Z,5.92
2018-03-24T11:42:46.615Z,4.49
2018-03-24T11:48:37.458Z,10.52
2018-03-24T11:54:28.336Z,5.68
2018-03-24T12:00:19.197Z,5.24
2018-03-24T12:06:10.016Z,5.9
2018-03-24T12:12:00.888Z,6.94
2018-03-24T12:17:51.722Z,4.48
2018-03-24T12:23:42.622Z,4.89
2018-03-24T12:29:33.423Z,4.83
2018-03-24T12:35:24.403Z,4.29
2018-03-24T12:41:15.210Z,3.99
2018-03-24T12:47:06.019Z,2.79
2018-03-24T12:52:56.795Z,3.92
2018-03-24T12:58:47.675Z,4.29
2018-03-24T13:04:38.543Z,4.54
2018-03-24T13:10:29.400Z,5.25
2018-03-24T13:16:20.282Z,7.12
2018-03-24T13:22:11.082Z,6.21
2018-03-24T13:28:01.912Z,4.6
2018-03-24T13:33:52.865Z,4.17
2018-03-24T13:39:43.600Z,4.28
2018-03-24T13:45:34.446Z,3.85
2018-03-24T13:51:25.396Z,3.79
2018-03-24T13:57:16.185Z,3.74
2018-03-24T14:03:07.005Z,4.76
2018-03-24T14:08:57.823Z,4.24
2018-03-24T14:14:48.723Z,4.14
2018-03-24T14:20:39.536Z,4.38
2018-03-24T14:26:30.378Z,6.63
2018-03-24T14:32:21.209Z,7.16
2018-03-24T14:38:12.038Z,9.44
2018-03-24T14:44:02.886Z,17.96
2018-03-24T14:49:53.727Z,8.94
2018-03-24T14:55:44.518Z,5.76
2018-03-24T15:01:35.336Z,20.79
2018-03-24T15:07:26.183Z,10.99
2018-03-24T15:13:17.017Z,7.21
2018-03-24T15:19:07.859Z,7.47
2018-03-24T15:24:58.738Z,8.98
2018-03-24T15:30:49.614Z,5.75
2018-03-24T15:36:40.348Z,9.14
2018-03-24T15:42:31.224Z,6.83
2018-03-24T15:48:22.047Z,5.28
2018-03-24T15:54:12.913Z,7.93
2018-03-24T16:00:03.735Z,7.4
2018-03-24T16:05:54.544Z,8.31
2018-03-24T16:11:45.331Z,7.4
2018-03-24T16:17:36.173Z,7.53
2018-03-24T16:23:26.991Z,8.51
2018-03-24T16:29:17.803Z,9.38
2018-03-24T16:35:08.638Z,6.39
2018-03-24T16:40:59.441Z,10.11
2018-03-24T16:46:50.314Z,9.44
2018-03-24T16:52:41.104Z,7.99
2018-03-24T16:58:31.936Z,12.54
2018-03-24T17:04:22.772Z,13.34
2018-03-24T17:10:13.552Z,12.33
2018-03-24T17:16:04.328Z,8.35
2018-03-24T17:21:55.178Z,12.47
2018-03-24T17:27:45.953Z,10.22
2018-03-24T17:33:36.771Z,7.47
2018-03-24T17:39:27.590Z,12
2018-03-24T17:45:18.372Z,10.56
2018-03-24T17:51:09.241Z,8.16
2018-03-24T17:56:59.934Z,8.46
2018-03-24T18:02:50.778Z,13.07
2018-03-24T18:08:41.587Z,10.34
2018-03-24T18:14:32.365Z,10.61
2018-03-24T18:20:23.208Z,17.69
2018-03-24T18:26:13.958Z,11.01
2018-03-24T18:32:04.748Z,9.64
2018-03-24T18:37:55.537Z,9.93
2018-03-24T18:43:46.372Z,8.73
2018-03-24T18:49:37.155Z,9.44
2018-03-24T18:55:27.968Z,8.8
2018-03-24T19:01:18.765Z,9.37
2018-03-24T19:07:09.538Z,11.84
2018-03-24T19:13:00.383Z,12.63
2018-03-24T19:18:51.148Z,11.74
2018-03-24T19:24:41.927Z,8.52
2018-03-24T19:30:32.744Z,8.7
2018-03-24T19:36:23.523Z,16.26
2018-03-24T19:42:14.329Z,8.32
2018-03-24T19:48:05.111Z,12.14
2018-03-24T19:53:55.883Z,13.62
2018-03-24T19:59:46.692Z,15.02
2018-03-24T20:05:37.511Z,12.24
2018-03-24T20:11:28.275Z,11.22
2018-03-24T20:17:19.096Z,12.35
2018-03-24T20:23:09.889Z,11.31
2018-03-24T20:29:00.626Z,9.63
2018-03-24T20:34:51.379Z,9.64
2018-03-24T20:40:42.242Z,8.06
2018-03-24T20:46:32.947Z,8.13
2018-03-24T20:52:23.798Z,10.6
2018-03-24T20:58:14.511Z,8.63
2018-03-24T21:04:05.346Z,20.39
2018-03-24T21:09:56.142Z,13.55
2018-03-24T21:15:46.910Z,11.07
2018-03-24T21:21:37.665Z,11.7
2018-03-24T21:27:28.446Z,8.56
2018-03-24T21:33:19.287Z,9.21
2018-03-24T21:39:10.021Z,7.89
2018-03-24T21:45:00.881Z,7.45
2018-03-24T21:50:51.626Z,10.32
2018-03-24T21:56:42.346Z,10.4
2018-03-24T22:02:33.157Z,4.82
2018-03-24T22:08:23.915Z,9.16
2018-03-24T22:14:14.736Z,4.51
2018-03-24T22:20:05.441Z,5.5
2018-03-24T22:25:56.243Z,8.93
2018-03-24T22:31:47.016Z,6.3
2018-03-24T22:37:37.793Z,6.7
2018-03-24T22:43:28.588Z,4.59
2018-03-24T22:49:19.309Z,4.01
2018-03-24T22:55:10.123Z,5.67
2018-03-24T23:01:00.879Z,4.34
2018-03-24T23:06:51.709Z,5.35
2018-03-24T23:12:42.443Z,4.71
2018-03-24T23:18:33.275Z,3.82
2018-03-24T23:24:24.012Z,6.5
2018-03-24T23:30:14.765Z,7.54
2018-03-24T23:36:05.530Z,6.98
2018-03-24T23:41:56.354Z,6.03
2018-03-24T23:47:47.082Z,4.18
2018-03-24T23:53:37.881Z,4.66
2018-03-24T23:59:28.649Z,5.82
